createdAt,value
2019-04-21T00:01:08.526Z,7.80
2019-04-21T00:03:44.139Z,7.80
2019-04-21T00:06:30.952Z,7.90
2019-04-21T00:09:02.350Z,7.90
2019-04-21T00:11:34.307Z,7.90
2019-04-21T00:13:56.143Z,8.00
2019-04-21T00:16:24.672Z,8.00
2019-04-21T00:19:09.277Z,8.00
2019-04-21T00:21:42.668Z,7.90
2019-04-21T00:24:29.222Z,7.90
2019-04-21T00:27:02.467Z,7.90
2019-04-21T00:32:08.596Z,7.80
2019-04-21T00:34:23.622Z,7.70
2019-04-21T00:37:08.301Z,7.70
2019-04-21T00:39:55.782Z,7.70
2019-04-21T00:42:21.619Z,7.70
2019-04-21T00:44:44.299Z,7.70
2019-04-21T00:47:27.304Z,7.60
2019-04-21T00:49:59.109Z,7.50
2019-04-21T00:52:51.026Z,7.40
2019-04-21T00:55:35.553Z,7.30
2019-04-21T00:58:05.241Z,7.40
2019-04-21T01:00:32.346Z,7.30
2019-04-21T01:03:10.937Z,7.30
2019-04-21T01:05:42.774Z,7.20
2019-04-21T01:08:09.965Z,7.10
2019-04-21T01:10:35.872Z,7.00
2019-04-21T01:13:23.587Z,6.90
2019-04-21T01:15:51.503Z,6.90
2019-04-21T01:18:21.786Z,6.90
2019-04-21T01:20:30.770Z,6.90
2019-04-21T01:23:02.307Z,6.80
2019-04-21T01:25:38.176Z,6.70
2019-04-21T01:28:24.579Z,6.80
2019-04-21T01:30:56.836Z,6.50
2019-04-21T01:33:34.930Z,6.30
2019-04-21T01:35:58.077Z,6.40
2019-04-21T01:38:39.849Z,6.50
2019-04-21T01:41:07.074Z,6.40
2019-04-21T01:43:33.694Z,6.30
2019-04-21T01:46:09.280Z,6.20
2019-04-21T01:48:39.123Z,6.20
2019-04-21T01:51:15.555Z,6.00
2019-04-21T01:54:14.736Z,6.10
2019-04-21T01:56:52.395Z,5.90
2019-04-21T01:59:12.778Z,5.90
2019-04-21T02:02:00.423Z,6.00
2019-04-21T02:04:37.000Z,5.80
2019-04-21T02:07:07.396Z,5.80
2019-04-21T02:09:37.992Z,5.80
2019-04-21T02:12:17.263Z,5.80
2019-04-21T02:14:50.503Z,5.70
2019-04-21T02:17:16.271Z,5.60
2019-04-21T02:19:41.027Z,5.60
2019-04-21T02:22:24.134Z,5.70
2019-04-21T02:24:56.646Z,5.70
2019-04-21T02:27:23.785Z,5.60
2019-04-21T02:30:02.708Z,5.60
2019-04-21T02:32:43.869Z,5.50
2019-04-21T02:38:03.913Z,5.90
2019-04-21T02:43:00.253Z,5.80
2019-04-21T02:45:24.489Z,5.90
2019-04-21T02:50:28.747Z,5.80
2019-04-21T02:58:10.003Z,6.10
2019-04-21T03:00:44.913Z,6.10
2019-04-21T03:11:12.244Z,6.40
2019-04-21T03:13:47.157Z,6.30
2019-04-21T03:16:28.417Z,6.10
2019-04-21T03:18:52.454Z,6.20
2019-04-21T03:21:22.184Z,6.20
2019-04-21T03:23:57.535Z,6.20
2019-04-21T03:31:49.649Z,6.00
2019-04-21T03:39:01.349Z,6.10
2019-04-21T03:44:16.860Z,6.10
2019-04-21T03:46:47.280Z,6.10
2019-04-21T03:49:23.158Z,6.10
2019-04-21T03:54:21.250Z,6.10
2019-04-21T03:57:13.094Z,6.00
2019-04-21T03:59:24.918Z,5.80
2019-04-21T04:02:28.317Z,5.80
2019-04-21T04:05:08.935Z,5.70
2019-04-21T04:07:42.291Z,5.50
2019-04-21T04:10:19.568Z,5.20
2019-04-21T04:12:44.338Z,5.20
2019-04-21T04:15:24.296Z,5.30
2019-04-21T04:17:41.022Z,5.40
2019-04-21T04:25:35.402Z,5.50
2019-04-21T04:30:34.050Z,5.20
2019-04-21T04:33:01.264Z,5.20
2019-04-21T04:38:07.023Z,5.10
2019-04-21T04:41:01.811Z,5.10
2019-04-21T04:43:26.944Z,5.20
2019-04-21T04:56:05.899Z,5.30
2019-04-21T04:59:15.948Z,5.30
2019-04-21T05:01:14.696Z,5.30
2019-04-21T05:09:09.425Z,5.40
2019-04-21T05:19:22.858Z,5.70
2019-04-21T05:21:38.691Z,5.70
2019-04-21T05:23:59.884Z,5.90
2019-04-21T05:26:34.547Z,6.00
2019-04-21T05:29:02.024Z,6.20
2019-04-21T05:31:54.753Z,6.30
2019-04-21T05:34:21.967Z,6.40
2019-04-21T05:37:06.079Z,6.60
2019-04-21T05:39:53.502Z,6.80
2019-04-21T05:42:23.672Z,7.00
2019-04-21T05:47:46.288Z,7.60
2019-04-21T05:50:11.553Z,7.80
2019-04-21T05:52:52.009Z,8.20
2019-04-21T05:55:34.330Z,8.40
2019-04-21T05:58:01.291Z,8.70
2019-04-21T06:00:54.644Z,9.10
2019-04-21T06:03:13.459Z,9.40
2019-04-21T06:05:47.854Z,9.70
2019-04-21T06:08:14.611Z,10.10
2019-04-21T06:10:47.294Z,10.30
2019-04-21T06:13:18.749Z,10.60
2019-04-21T06:18:28.912Z,11.10
2019-04-21T06:20:56.893Z,11.30
2019-04-21T06:23:24.074Z,11.40
2019-04-21T06:26:27.030Z,11.60
2019-04-21T06:28:38.144Z,11.80
2019-04-21T06:31:30.718Z,11.90
2019-04-21T06:33:35.725Z,12.10
2019-04-21T06:39:04.983Z,12.60
2019-04-21T06:44:11.834Z,12.80
2019-04-21T06:46:39.330Z,12.90
2019-04-21T06:51:33.769Z,13.30
2019-04-21T06:56:41.053Z,13.60
2019-04-21T06:59:21.039Z,13.90
2019-04-21T07:01:55.298Z,14.10
2019-04-21T07:06:48.175Z,14.40
2019-04-21T07:09:26.914Z,14.50
2019-04-21T07:11:53.865Z,14.90
2019-04-21T07:14:29.359Z,15.10
2019-04-21T07:16:58.121Z,15.40
2019-04-21T07:22:01.127Z,16.20
2019-04-21T07:24:31.276Z,16.70
2019-04-21T07:27:02.840Z,17.00
2019-04-21T07:29:39.533Z,17.50
2019-04-21T07:32:11.761Z,17.70
2019-04-21T07:34:38.283Z,17.70
2019-04-21T07:37:13.939Z,18.20
2019-04-21T07:39:39.093Z,18.20
2019-04-21T07:42:14.334Z,18.70
2019-04-21T07:44:44.762Z,18.80
2019-04-21T07:47:23.510Z,18.50
2019-04-21T07:50:00.921Z,18.70
2019-04-21T07:53:07.004Z,19.10
2019-04-21T07:58:02.576Z,19.70
2019-04-21T08:00:35.860Z,19.80
2019-04-21T08:03:15.915Z,20.00
2019-04-21T08:05:43.964Z,19.80
2019-04-21T08:07:59.658Z,20.00
2019-04-21T08:10:40.493Z,20.20
2019-04-21T08:13:22.135Z,20.70
2019-04-21T08:15:57.734Z,21.10
2019-04-21T08:18:20.320Z,21.10
2019-04-21T08:20:50.167Z,20.80
2019-04-21T08:23:20.430Z,21.10
2019-04-21T08:25:58.934Z,21.70
2019-04-21T08:28:25.936Z,22.10
2019-04-21T08:30:55.482Z,22.40
2019-04-21T08:33:46.574Z,22.90
2019-04-21T08:38:34.415Z,23.70
2019-04-21T08:41:11.066Z,23.20
2019-04-21T08:48:56.675Z,23.70
2019-04-21T08:51:33.342Z,23.80
2019-04-21T08:54:05.577Z,24.00
2019-04-21T08:57:10.397Z,23.80
2019-04-21T08:59:59.851Z,24.10
2019-04-21T09:02:37.251Z,23.40
2019-04-21T09:05:09.462Z,23.70
2019-04-21T09:07:41.721Z,23.70
2019-04-21T09:10:06.334Z,23.80
2019-04-21T09:12:43.124Z,24.10
2019-04-21T09:15:14.151Z,24.40
2019-04-21T09:17:39.204Z,24.70
2019-04-21T09:20:17.334Z,25.00
2019-04-21T09:22:49.283Z,25.50
2019-04-21T09:25:26.532Z,25.80
2019-04-21T09:27:47.128Z,26.00
2019-04-21T09:30:07.391Z,26.60
2019-04-21T09:32:40.303Z,26.60
2019-04-21T09:35:14.822Z,26.90
2019-04-21T09:37:51.676Z,26.80
2019-04-21T09:40:21.722Z,26.80
2019-04-21T09:42:55.996Z,26.80
2019-04-21T09:45:22.450Z,26.70
2019-04-21T09:48:00.834Z,26.90
2019-04-21T09:50:24.678Z,26.80
2019-04-21T09:53:00.244Z,26.70
2019-04-21T09:55:39.068Z,26.80
2019-04-21T09:58:12.661Z,26.50
2019-04-21T10:00:43.558Z,26.70
2019-04-21T10:03:08.409Z,27.50
2019-04-21T10:05:36.137Z,28.30
2019-04-21T10:08:08.179Z,28.70
2019-04-21T10:10:40.002Z,29.60
2019-04-21T10:13:10.663Z,28.90
2019-04-21T10:15:41.945Z,28.90
2019-04-21T10:18:25.112Z,28.50
2019-04-21T10:20:56.957Z,28.00
2019-04-21T10:23:27.522Z,28.00
2019-04-21T10:25:58.734Z,28.60
2019-04-21T10:28:29.306Z,29.30
2019-04-21T10:31:00.776Z,28.90
2019-04-21T10:33:32.534Z,28.20
2019-04-21T10:36:03.028Z,27.30
2019-04-21T10:38:42.360Z,27.20
2019-04-21T10:41:06.074Z,27.80
2019-04-21T10:43:37.518Z,29.20
2019-04-21T10:46:08.771Z,29.60
2019-04-21T10:48:39.448Z,30.30
2019-04-21T10:51:10.729Z,29.60
2019-04-21T10:53:43.334Z,29.40
2019-04-21T10:56:21.843Z,28.50
2019-04-21T10:58:47.503Z,29.10
2019-04-21T11:01:21.032Z,30.10
2019-04-21T11:04:23.554Z,30.80
2019-04-21T11:06:52.694Z,31.70
2019-04-21T11:09:51.985Z,30.50
2019-04-21T11:12:23.914Z,30.40
2019-04-21T11:14:54.487Z,30.20
2019-04-21T11:17:25.928Z,30.70
2019-04-21T11:19:57.044Z,29.70
2019-04-21T11:22:28.496Z,28.70
2019-04-21T11:24:59.046Z,28.60
2019-04-21T11:27:30.941Z,28.40
2019-04-21T11:30:02.354Z,29.10
2019-04-21T11:32:32.848Z,30.80
2019-04-21T11:35:03.360Z,31.00
2019-04-21T11:37:34.863Z,30.90
2019-04-21T11:40:10.770Z,31.30
2019-04-21T11:42:41.752Z,31.50
2019-04-21T11:45:18.665Z,31.30
2019-04-21T11:48:06.146Z,30.30
2019-04-21T11:50:37.084Z,30.50
2019-04-21T11:53:08.410Z,30.70
2019-04-21T11:55:43.157Z,30.20
2019-04-21T11:58:11.913Z,31.40
2019-04-21T12:00:43.496Z,32.00
2019-04-21T12:03:15.320Z,31.70
2019-04-21T12:05:46.153Z,31.40
2019-04-21T12:08:26.306Z,31.70
2019-04-21T12:10:49.289Z,31.40
2019-04-21T12:13:20.414Z,30.00
2019-04-21T12:15:50.942Z,30.00
2019-04-21T12:18:21.988Z,30.30
2019-04-21T12:20:53.785Z,30.90
2019-04-21T12:23:24.651Z,30.30
2019-04-21T12:25:55.141Z,30.60
2019-04-21T12:28:30.102Z,31.80
2019-04-21T12:31:00.124Z,32.40
2019-04-21T12:33:48.243Z,32.60
2019-04-21T12:36:19.824Z,32.20
2019-04-21T12:38:55.798Z,32.50
2019-04-21T12:41:22.732Z,32.60
2019-04-21T12:43:53.122Z,32.70
2019-04-21T12:46:23.515Z,32.40
2019-04-21T12:48:53.992Z,33.30
2019-04-21T12:51:25.853Z,34.10
2019-04-21T12:53:57.429Z,34.90
2019-04-21T12:56:29.408Z,33.90
2019-04-21T12:58:59.906Z,33.60
2019-04-21T13:01:30.891Z,33.60
2019-04-21T13:04:01.804Z,33.60
2019-04-21T13:06:33.759Z,34.00
2019-04-21T13:09:08.581Z,33.20
2019-04-21T13:11:37.208Z,32.50
2019-04-21T13:14:08.258Z,32.80
2019-04-21T13:16:39.272Z,33.30
2019-04-21T13:19:09.744Z,32.80
2019-04-21T13:21:40.451Z,31.70
2019-04-21T13:24:11.687Z,32.10
2019-04-21T13:26:47.219Z,32.40
2019-04-21T13:29:14.854Z,32.20
2019-04-21T13:31:45.326Z,31.60
2019-04-21T13:34:15.929Z,30.90
2019-04-21T13:36:47.724Z,30.30
2019-04-21T13:39:55.502Z,29.10
2019-04-21T13:42:18.048Z,28.10
2019-04-21T13:44:41.319Z,27.40
2019-04-21T13:47:12.498Z,26.50
2019-04-21T13:49:43.425Z,25.80
2019-04-21T13:52:14.983Z,25.30
2019-04-21T13:54:45.591Z,24.60
2019-04-21T13:57:16.705Z,24.40
2019-04-21T13:59:49.392Z,24.40
2019-04-21T14:02:20.706Z,24.30
2019-04-21T14:04:51.808Z,24.10
2019-04-21T14:07:22.327Z,23.60
2019-04-21T14:09:57.554Z,23.50
2019-04-21T14:12:25.394Z,23.30
2019-04-21T14:14:56.563Z,23.40
2019-04-21T14:17:27.140Z,23.30
2019-04-21T14:19:57.438Z,23.50
2019-04-21T14:22:28.325Z,23.40
2019-04-21T14:24:59.755Z,23.00
2019-04-21T14:27:30.232Z,23.20
2019-04-21T14:30:00.732Z,23.60
2019-04-21T14:32:31.845Z,23.80
2019-04-21T14:35:03.091Z,23.70
2019-04-21T14:37:34.815Z,23.70
2019-04-21T14:40:10.738Z,24.00
2019-04-21T14:42:38.570Z,24.20
2019-04-21T14:45:12.773Z,24.10
2019-04-21T14:48:03.188Z,24.00
2019-04-21T14:50:59.992Z,24.00
2019-04-21T14:53:38.136Z,24.20
2019-04-21T14:56:09.097Z,24.20
2019-04-21T14:58:39.687Z,24.30
2019-04-21T15:01:10.450Z,24.10
2019-04-21T15:03:41.690Z,23.60
2019-04-21T15:06:13.478Z,23.10
2019-04-21T15:08:44.918Z,23.00
2019-04-21T15:11:16.081Z,23.00
2019-04-21T15:13:47.987Z,22.90
2019-04-21T15:16:18.756Z,22.80
2019-04-21T15:18:50.494Z,22.70
2019-04-21T15:21:21.622Z,22.60
2019-04-21T15:23:52.074Z,22.40
2019-04-21T15:26:22.492Z,22.30
2019-04-21T15:28:52.946Z,22.20
2019-04-21T15:31:30.615Z,22.10
2019-04-21T15:33:55.532Z,22.10
2019-04-21T15:36:27.219Z,22.10
2019-04-21T15:38:58.057Z,22.20
2019-04-21T15:41:28.525Z,22.20
2019-04-21T15:44:01.270Z,22.50
2019-04-21T15:46:33.885Z,22.80
2019-04-21T15:49:04.931Z,23.00
2019-04-21T15:51:35.788Z,23.20
2019-04-21T15:54:06.856Z,23.60
2019-04-21T15:57:06.866Z,23.90
2019-04-21T15:59:46.809Z,24.30
2019-04-21T16:02:34.884Z,24.30
2019-04-21T16:05:06.605Z,24.80
2019-04-21T16:07:38.076Z,25.20
2019-04-21T16:10:10.657Z,25.50
2019-04-21T16:12:43.556Z,25.30
2019-04-21T16:15:14.633Z,24.90
2019-04-21T16:17:45.621Z,24.20
2019-04-21T16:20:17.711Z,23.50
2019-04-21T16:22:48.662Z,22.80
2019-04-21T16:25:19.165Z,22.30
2019-04-21T16:27:49.521Z,21.80
2019-04-21T16:30:20.100Z,21.60
2019-04-21T16:32:50.562Z,21.40
2019-04-21T16:35:22.136Z,21.20
2019-04-21T16:37:55.754Z,21.10
2019-04-21T16:40:25.781Z,20.90
2019-04-21T16:42:56.365Z,20.80
2019-04-21T16:45:28.533Z,20.90
2019-04-21T16:47:59.244Z,20.80
2019-04-21T16:50:29.883Z,20.70
2019-04-21T16:53:08.327Z,20.70
2019-04-21T16:56:13.217Z,20.90
2019-04-21T16:58:48.409Z,21.40
2019-04-21T17:01:24.199Z,21.50
2019-04-21T17:03:54.795Z,21.30
2019-04-21T17:06:25.285Z,21.00
2019-04-21T17:08:56.760Z,20.80
2019-04-21T17:11:31.685Z,20.60
2019-04-21T17:14:00.516Z,20.40
2019-04-21T17:17:03.996Z,20.30
2019-04-21T17:19:19.142Z,20.20
2019-04-21T17:21:43.683Z,20.20
2019-04-21T17:24:14.588Z,20.00
2019-04-21T17:26:53.219Z,19.80
2019-04-21T17:29:25.985Z,19.70
2019-04-21T17:31:57.328Z,19.60
2019-04-21T17:34:30.134Z,19.50
2019-04-21T17:37:01.245Z,19.50
2019-04-21T17:39:32.008Z,19.40
2019-04-21T17:42:15.291Z,19.30
2019-04-21T17:44:37.382Z,19.20
2019-04-21T17:47:20.098Z,19.10
2019-04-21T17:49:41.125Z,18.90
2019-04-21T17:52:45.971Z,18.80
2019-04-21T17:55:27.323Z,18.70
2019-04-21T17:58:09.602Z,18.50
2019-04-21T18:01:06.522Z,18.40
2019-04-21T18:03:35.988Z,18.30
2019-04-21T18:05:50.269Z,18.20
2019-04-21T18:08:32.567Z,18.20
2019-04-21T18:10:50.368Z,18.10
2019-04-21T18:13:17.344Z,18.00
2019-04-21T18:15:58.680Z,17.90
2019-04-21T18:18:18.711Z,17.70
2019-04-21T18:20:55.094Z,17.60
2019-04-21T18:23:57.427Z,17.50
2019-04-21T18:26:30.352Z,17.30
2019-04-21T18:28:57.181Z,17.20
2019-04-21T18:31:35.329Z,17.00
2019-04-21T18:34:12.716Z,16.90
2019-04-21T18:36:48.657Z,16.60
2019-04-21T18:39:43.325Z,16.30
2019-04-21T18:42:31.239Z,16.00
2019-04-21T18:45:40.273Z,15.70
2019-04-21T18:48:03.800Z,15.40
2019-04-21T18:50:57.044Z,15.10
2019-04-21T18:53:57.197Z,14.80
2019-04-21T18:56:11.280Z,14.40
2019-04-21T18:58:42.408Z,14.10
2019-04-21T19:01:21.999Z,14.10
2019-04-21T19:04:20.416Z,13.90
2019-04-21T19:07:06.715Z,13.70
2019-04-21T19:10:09.872Z,13.60
2019-04-21T19:12:23.648Z,13.30
2019-04-21T19:14:56.650Z,13.00
2019-04-21T19:20:22.273Z,12.90
2019-04-21T19:22:38.732Z,12.80
2019-04-21T19:25:13.105Z,12.70
2019-04-21T19:27:39.981Z,12.70
2019-04-21T19:30:23.460Z,12.50
2019-04-21T19:32:45.422Z,12.40
2019-04-21T19:35:01.881Z,12.30
2019-04-21T19:37:40.166Z,12.20
2019-04-21T19:40:16.137Z,12.20
2019-04-21T19:42:50.332Z,12.20
2019-04-21T19:45:24.809Z,12.20
2019-04-21T19:47:59.447Z,12.10
2019-04-21T19:50:35.042Z,11.90
2019-04-21T19:52:57.386Z,11.80
2019-04-21T19:55:24.248Z,11.80
2019-04-21T19:57:55.029Z,11.80
2019-04-21T20:00:26.585Z,11.80
2019-04-21T20:02:58.627Z,11.80
2019-04-21T20:05:36.080Z,11.70
2019-04-21T20:08:17.424Z,11.70
2019-04-21T20:10:57.430Z,11.60
2019-04-21T20:13:43.683Z,11.50
2019-04-21T20:16:04.004Z,11.20
2019-04-21T20:18:23.251Z,11.10
2019-04-21T20:20:44.084Z,11.00
2019-04-21T20:23:16.925Z,11.00
2019-04-21T20:25:52.148Z,10.90
2019-04-21T20:28:35.287Z,11.00
2019-04-21T20:31:13.016Z,10.80
2019-04-21T20:33:52.672Z,10.70
2019-04-21T20:36:21.137Z,10.50
2019-04-21T20:38:40.445Z,10.50
2019-04-21T20:41:19.708Z,10.30
2019-04-21T20:43:51.324Z,10.30
2019-04-21T20:46:24.673Z,10.20
2019-04-21T20:48:50.954Z,10.20
2019-04-21T20:51:27.382Z,10.20
2019-04-21T20:53:53.736Z,10.10
2019-04-21T20:56:26.910Z,10.00
2019-04-21T20:59:10.947Z,10.00
2019-04-21T21:01:41.267Z,9.80
2019-04-21T21:04:07.484Z,9.90
2019-04-21T21:06:42.418Z,10.00
2019-04-21T21:09:14.305Z,9.80
2019-04-21T21:12:04.094Z,9.80
2019-04-21T21:14:26.316Z,9.70
2019-04-21T21:16:59.303Z,9.80
2019-04-21T21:19:28.591Z,9.80
2019-04-21T21:21:54.009Z,9.80
2019-04-21T21:24:36.466Z,9.90
2019-04-21T21:27:01.934Z,10.00
2019-04-21T21:29:37.038Z,9.70
2019-04-21T21:32:19.557Z,9.70
2019-04-21T21:34:43.472Z,9.70
2019-04-21T21:37:21.651Z,9.60
2019-04-21T21:39:53.759Z,9.50
2019-04-21T21:42:02.707Z,9.40
2019-04-21T21:44:32.523Z,9.10
2019-04-21T21:47:14.415Z,9.00
2019-04-21T21:49:51.311Z,9.00
2019-04-21T21:52:18.266Z,9.00
2019-04-21T21:54:40.103Z,8.90
2019-04-21T21:57:10.672Z,8.90
2019-04-21T21:59:42.170Z,8.80
2019-04-21T22:02:24.147Z,8.60
2019-04-21T22:04:56.862Z,8.70
2019-04-21T22:07:25.730Z,8.70
2019-04-21T22:09:52.385Z,8.70
2019-04-21T22:12:22.980Z,8.90
2019-04-21T22:14:55.467Z,8.90
2019-04-21T22:17:41.990Z,8.90
2019-04-21T22:20:14.002Z,9.10
2019-04-21T22:22:43.860Z,9.30
2019-04-21T22:25:09.630Z,9.50
2019-04-21T22:27:34.987Z,9.80
2019-04-21T22:30:10.839Z,10.10
2019-04-21T22:32:50.225Z,10.40
2019-04-21T22:35:23.694Z,10.80
2019-04-21T22:37:57.052Z,11.10
2019-04-21T22:40:29.514Z,11.40
2019-04-21T22:42:59.400Z,11.60
2019-04-21T22:45:23.141Z,11.80
2019-04-21T22:47:58.726Z,12.00
2019-04-21T22:50:30.791Z,12.00
2019-04-21T22:53:04.735Z,12.10
2019-04-21T22:55:35.316Z,12.30
2019-04-21T22:58:07.484Z,12.40
2019-04-21T23:00:44.449Z,12.50
2019-04-21T23:03:16.419Z,12.50
2019-04-21T23:05:44.507Z,12.50
2019-04-21T23:08:15.151Z,12.60
2019-04-21T23:10:52.341Z,12.50
2019-04-21T23:13:21.930Z,12.50
2019-04-21T23:15:55.367Z,12.40
2019-04-21T23:18:36.051Z,12.30
2019-04-21T23:21:10.396Z,12.20
2019-04-21T23:23:44.175Z,12.30
2019-04-21T23:26:18.179Z,12.20
2019-04-21T23:28:51.943Z,12.20
2019-04-21T23:31:27.222Z,12.10
2019-04-21T23:33:37.276Z,12.10
2019-04-21T23:36:14.948Z,12.10
2019-04-21T23:38:44.125Z,12.00
2019-04-21T23:41:13.128Z,12.00
2019-04-21T23:43:44.805Z,12.00
2019-04-21T23:46:20.350Z,12.00
2019-04-21T23:49:02.428Z,11.90
2019-04-21T23:51:32.733Z,11.80
2019-04-21T23:53:53.413Z,11.80
2019-04-21T23:56:32.293Z,11.90
2019-04-21T23:59:02.632Z,11.90
